createdAt,value
2022-12-18T00:00:10.500Z,101044.66
2022-12-18T00:02:38.667Z,101048.22
2022-12-18T00:05:07.990Z,101038.47
2022-12-18T00:07:36.101Z,101041.31
2022-12-18T00:10:04.306Z,101049.78
2022-12-18T00:12:33.954Z,101051.88
2022-12-18T00:15:02.003Z,101058.44
2022-12-18T00:17:30.088Z,101062.16
2022-12-18T00:19:58.205Z,101057.44
2022-12-18T00:22:26.370Z,101068.53
2022-12-18T00:24:54.516Z,101077.31
2022-12-18T00:27:22.624Z,101089.13
2022-12-18T00:29:52.236Z,101085.41
2022-12-18T00:32:20.376Z,101087.03
2022-12-18T00:34:48.475Z,101095.06
2022-12-18T00:37:20.015Z,101106.66
2022-12-18T00:39:50.709Z,101117.41
2022-12-18T00:42:36.708Z,101120.56
2022-12-18T00:45:12.304Z,101123.78
2022-12-18T00:47:41.393Z,101130.03
2022-12-18T00:50:10.876Z,101116.16
2022-12-18T00:52:38.972Z,101117.25
2022-12-18T00:55:08.023Z,101123.72
2022-12-18T00:57:36.344Z,101136.53
2022-12-18T01:00:06.727Z,101132.84
2022-12-18T01:02:35.114Z,101147.09
2022-12-18T01:05:03.610Z,101149.25
2022-12-18T01:07:31.726Z,101154.03
2022-12-18T01:09:59.779Z,101157.59
2022-12-18T01:12:27.933Z,101149.34
2022-12-18T01:14:56.089Z,101150.78
2022-12-18T01:17:26.030Z,101151.94
2022-12-18T01:19:54.167Z,101151.22
2022-12-18T01:22:22.296Z,101157.16
2022-12-18T01:24:50.672Z,101155.47
2022-12-18T01:27:18.841Z,101166.75
2022-12-18T01:29:46.954Z,101171.84
2022-12-18T01:32:15.179Z,101166.19
2022-12-18T01:34:44.702Z,101147.31
2022-12-18T01:37:12.829Z,101157.00
2022-12-18T01:39:41.051Z,101165.97
2022-12-18T01:42:14.350Z,101158.69
2022-12-18T01:45:02.111Z,101167.56
2022-12-18T01:47:34.444Z,101175.53
2022-12-18T01:50:08.453Z,101173.22
2022-12-18T01:52:39.490Z,101178.03
2022-12-18T01:55:10.045Z,101180.44
2022-12-18T01:57:38.674Z,101193.59
2022-12-18T02:00:10.705Z,101196.00
2022-12-18T02:02:39.075Z,101191.81
2022-12-18T02:05:10.498Z,101181.38
2022-12-18T02:07:48.065Z,101186.22
2022-12-18T02:10:22.273Z,101187.78
2022-12-18T02:12:58.411Z,101182.19
2022-12-18T02:15:34.174Z,101179.25
2022-12-18T02:18:09.535Z,101192.91
2022-12-18T02:20:44.498Z,101198.81
2022-12-18T02:23:26.638Z,101189.47
2022-12-18T02:26:10.753Z,101196.44
2022-12-18T02:28:42.441Z,101190.59
2022-12-18T02:31:16.642Z,101195.59
2022-12-18T02:33:47.039Z,101203.41
2022-12-18T02:36:17.014Z,101208.25
2022-12-18T02:38:47.793Z,101223.50
2022-12-18T02:41:18.973Z,101228.63
2022-12-18T02:43:50.233Z,101236.41
2022-12-18T02:46:36.787Z,101230.22
2022-12-18T02:49:14.222Z,101233.38
2022-12-18T02:51:53.235Z,101240.06
2022-12-18T02:54:31.051Z,101251.25
2022-12-18T02:57:11.991Z,101258.47
2022-12-18T02:59:47.883Z,101252.59
2022-12-18T03:02:23.472Z,101255.50
2022-12-18T03:05:01.743Z,101242.47
2022-12-18T03:07:40.095Z,101237.16
2022-12-18T03:10:13.820Z,101245.13
2022-12-18T03:12:48.182Z,101254.31
2022-12-18T03:15:21.622Z,101260.28
2022-12-18T03:17:54.779Z,101262.16
2022-12-18T03:20:25.736Z,101246.66
2022-12-18T03:22:58.058Z,101250.63
2022-12-18T03:25:28.095Z,101250.41
2022-12-18T03:28:01.241Z,101244.44
2022-12-18T03:30:31.857Z,101255.13
2022-12-18T03:33:08.112Z,101257.84
2022-12-18T03:35:40.872Z,101265.69
2022-12-18T03:38:09.477Z,101262.91
2022-12-18T03:40:46.144Z,101260.72
2022-12-18T03:43:23.242Z,101263.66
2022-12-18T03:45:58.026Z,101279.16
2022-12-18T03:48:32.663Z,101278.69
2022-12-18T03:51:07.100Z,101283.78
2022-12-18T03:53:42.802Z,101290.78
2022-12-18T03:56:12.075Z,101288.63
2022-12-18T03:58:43.891Z,101289.78
2022-12-18T04:01:17.581Z,101302.34
2022-12-18T04:03:48.680Z,101317.06
2022-12-18T04:06:18.747Z,101326.72
2022-12-18T04:08:48.095Z,101346.50
2022-12-18T04:11:17.118Z,101349.22
2022-12-18T04:13:46.625Z,101349.31
2022-12-18T04:16:14.783Z,101364.81
2022-12-18T04:18:43.064Z,101361.88
2022-12-18T04:21:12.582Z,101367.81
2022-12-18T04:23:41.168Z,101365.69
2022-12-18T04:26:09.652Z,101385.47
2022-12-18T04:28:37.778Z,101391.09
2022-12-18T04:31:07.350Z,101390.31
2022-12-18T04:33:38.024Z,101400.25
2022-12-18T04:36:07.308Z,101395.41
2022-12-18T04:38:35.800Z,101401.84
2022-12-18T04:41:04.409Z,101398.63
2022-12-18T04:43:33.958Z,101415.22
2022-12-18T04:46:07.819Z,101420.88
2022-12-18T04:48:36.929Z,101421.69
2022-12-18T04:51:05.917Z,101425.44
2022-12-18T04:53:34.101Z,101419.53
2022-12-18T04:56:07.547Z,101424.59
2022-12-18T04:58:35.631Z,101433.97
2022-12-18T05:01:04.428Z,101431.56
2022-12-18T05:03:34.149Z,101444.13
2022-12-18T05:06:02.726Z,101449.97
2022-12-18T05:08:30.846Z,101462.25
2022-12-18T05:11:02.903Z,101464.38
2022-12-18T05:13:32.268Z,101472.38
2022-12-18T05:16:00.656Z,101472.63
2022-12-18T05:18:29.304Z,101479.72
2022-12-18T05:20:59.294Z,101488.81
2022-12-18T05:23:27.927Z,101490.66
2022-12-18T05:25:57.327Z,101486.69
2022-12-18T05:28:27.495Z,101498.88
2022-12-18T05:30:57.462Z,101494.41
2022-12-18T05:33:28.483Z,101512.41
2022-12-18T05:36:00.239Z,101515.84
2022-12-18T05:38:29.283Z,101528.66
2022-12-18T05:40:58.882Z,101529.53
2022-12-18T05:43:28.463Z,101532.00
2022-12-18T05:45:57.978Z,101543.38
2022-12-18T05:48:26.508Z,101554.00
2022-12-18T05:50:54.689Z,101560.53
2022-12-18T05:53:24.227Z,101568.69
2022-12-18T05:55:52.503Z,101567.19
2022-12-18T05:58:20.742Z,101575.78
2022-12-18T06:00:49.417Z,101580.34
2022-12-18T06:03:17.807Z,101582.41
2022-12-18T06:05:47.160Z,101586.41
2022-12-18T06:08:16.130Z,101595.03
2022-12-18T06:10:53.506Z,101618.28
2022-12-18T06:13:22.310Z,101626.81
2022-12-18T06:15:50.609Z,101623.28
2022-12-18T06:18:18.932Z,101634.00
2022-12-18T06:20:47.086Z,101648.44
2022-12-18T06:23:15.204Z,101658.91
2022-12-18T06:25:43.583Z,101671.22
2022-12-18T06:28:13.142Z,101677.44
2022-12-18T06:30:41.446Z,101693.56
2022-12-18T06:33:09.674Z,101699.81
2022-12-18T06:35:37.842Z,101708.19
2022-12-18T06:38:06.076Z,101719.38
2022-12-18T06:40:34.394Z,101710.03
2022-12-18T06:43:02.833Z,101711.34
2022-12-18T06:45:32.412Z,101716.91
2022-12-18T06:48:00.581Z,101726.22
2022-12-18T06:50:29.136Z,101725.63
2022-12-18T06:52:57.407Z,101722.13
2022-12-18T06:55:25.591Z,101724.81
2022-12-18T06:57:53.869Z,101715.69
2022-12-18T07:00:22.156Z,101721.97
2022-12-18T07:02:51.875Z,101731.53
2022-12-18T07:05:20.063Z,101742.19
2022-12-18T07:07:48.227Z,101728.94
2022-12-18T07:10:16.296Z,101728.84
2022-12-18T07:12:44.427Z,101737.28
2022-12-18T07:15:12.882Z,101730.81
2022-12-18T07:17:41.048Z,101747.28
2022-12-18T07:20:12.398Z,101745.72
2022-12-18T07:22:40.654Z,101752.38
2022-12-18T07:25:09.833Z,101756.56
2022-12-18T07:27:37.950Z,101756.13
2022-12-18T07:30:07.723Z,101754.09
2022-12-18T07:32:36.992Z,101752.91
2022-12-18T07:35:05.716Z,101760.91
2022-12-18T07:37:35.229Z,101754.94
2022-12-18T07:40:04.679Z,101759.53
2022-12-18T07:42:32.807Z,101746.53
2022-12-18T07:45:01.260Z,101754.84
2022-12-18T07:47:37.249Z,101756.47
2022-12-18T07:50:05.779Z,101758.94
2022-12-18T07:52:35.412Z,101762.19
2022-12-18T07:55:03.520Z,101767.41
2022-12-18T08:00:21.458Z,101770.66
2022-12-18T08:02:49.626Z,101771.38
2022-12-18T08:05:17.996Z,101771.53
2022-12-18T08:07:47.709Z,101783.16
2022-12-18T08:10:15.885Z,101776.94
2022-12-18T08:12:44.446Z,101786.03
2022-12-18T08:15:13.176Z,101771.31
2022-12-18T08:17:41.268Z,101783.47
2022-12-18T08:20:10.727Z,101784.25
2022-12-18T08:22:38.884Z,101772.69
2022-12-18T08:25:09.701Z,101773.63
2022-12-18T08:27:38.086Z,101786.25
2022-12-18T08:30:07.450Z,101789.78
2022-12-18T08:32:35.705Z,101779.84
2022-12-18T08:35:03.955Z,101779.84
2022-12-18T08:37:32.219Z,101778.47
2022-12-18T08:40:00.425Z,101775.56
2022-12-18T08:42:47.236Z,101769.22
2022-12-18T08:45:16.242Z,101781.00
2022-12-18T08:47:44.904Z,101786.16
2022-12-18T08:50:13.483Z,101788.53
2022-12-18T08:52:41.545Z,101792.03
2022-12-18T08:55:11.153Z,101787.94
2022-12-18T08:57:40.797Z,101789.53
2022-12-18T09:00:10.491Z,101789.53
2022-12-18T09:02:38.813Z,101794.75
2022-12-18T09:05:07.929Z,101781.94
2022-12-18T09:07:36.103Z,101797.50
2022-12-18T09:10:04.408Z,101791.25
2022-12-18T09:12:32.754Z,101788.81
2022-12-18T09:15:02.356Z,101787.13
2022-12-18T09:17:30.575Z,101785.38
2022-12-18T09:19:58.869Z,101786.66
2022-12-18T09:22:26.974Z,101775.22
2022-12-18T09:24:55.258Z,101786.81
2022-12-18T09:27:23.750Z,101804.88
2022-12-18T09:29:52.114Z,101800.22
2022-12-18T09:32:22.770Z,101791.06
2022-12-18T09:34:51.102Z,101794.47
2022-12-18T09:37:19.509Z,101789.19
2022-12-18T09:39:47.715Z,101796.88
2022-12-18T09:42:22.803Z,101791.53
2022-12-18T09:44:54.464Z,101797.03
2022-12-18T09:47:27.925Z,101799.59
2022-12-18T09:50:00.283Z,101794.72
2022-12-18T09:52:32.332Z,101813.28
2022-12-18T09:55:08.776Z,101798.47
2022-12-18T09:57:41.832Z,101789.28
2022-12-18T10:00:18.707Z,101789.88
2022-12-18T10:02:50.850Z,101786.25
2022-12-18T10:05:22.939Z,101790.41
2022-12-18T10:07:57.709Z,101788.94
2022-12-18T10:10:34.149Z,101786.84
2022-12-18T10:13:11.676Z,101788.06
2022-12-18T10:15:48.808Z,101790.81
2022-12-18T10:18:27.914Z,101787.94
2022-12-18T10:21:02.288Z,101787.81
2022-12-18T10:23:46.411Z,101787.63
2022-12-18T10:26:16.437Z,101792.84
2022-12-18T10:28:46.424Z,101802.84
2022-12-18T10:31:19.093Z,101803.06
2022-12-18T10:33:48.964Z,101796.56
2022-12-18T10:36:17.405Z,101799.78
2022-12-18T10:38:45.573Z,101797.94
2022-12-18T10:41:29.266Z,101807.19
2022-12-18T10:44:19.138Z,101803.34
2022-12-18T10:46:49.024Z,101820.06
2022-12-18T10:49:27.786Z,101812.00
2022-12-18T10:52:09.481Z,101813.66
2022-12-18T10:54:38.676Z,101821.50
2022-12-18T10:57:31.997Z,101815.72
2022-12-18T11:00:01.310Z,101832.81
2022-12-18T11:02:36.163Z,101819.09
2022-12-18T11:05:24.785Z,101831.41
2022-12-18T11:07:55.410Z,101828.50
2022-12-18T11:10:25.885Z,101831.91
2022-12-18T11:12:54.809Z,101842.53
2022-12-18T11:15:28.807Z,101842.44
2022-12-18T11:17:56.986Z,101850.25
2022-12-18T11:20:36.086Z,101848.66
2022-12-18T11:23:07.173Z,101842.41
2022-12-18T11:25:36.536Z,101849.09
2022-12-18T11:28:07.185Z,101859.31
2022-12-18T11:30:37.315Z,101863.53
2022-12-18T11:33:08.546Z,101864.50
2022-12-18T11:35:47.959Z,101863.03
2022-12-18T11:38:23.925Z,101861.69
2022-12-18T11:40:58.109Z,101857.88
2022-12-18T11:43:30.871Z,101857.72
2022-12-18T11:46:06.829Z,101860.53
2022-12-18T11:48:40.288Z,101868.38
2022-12-18T11:51:16.948Z,101872.75
2022-12-18T11:53:45.042Z,101862.88
2022-12-18T11:56:29.850Z,101862.38
2022-12-18T11:59:09.655Z,101858.06
2022-12-18T12:01:48.969Z,101859.09
2022-12-18T12:04:40.604Z,101863.88
2022-12-18T12:07:20.914Z,101872.00
2022-12-18T12:10:00.681Z,101870.97
2022-12-18T12:12:49.033Z,101872.41
2022-12-18T12:15:28.254Z,101893.56
2022-12-18T12:18:08.159Z,101895.59
2022-12-18T12:20:52.692Z,101903.66
2022-12-18T12:23:36.970Z,101912.28
2022-12-18T12:26:09.949Z,101915.78
2022-12-18T12:28:59.563Z,101921.13
2022-12-18T12:31:45.206Z,101928.94
2022-12-18T12:34:20.449Z,101920.78
2022-12-18T12:37:04.110Z,101940.56
2022-12-18T12:39:39.471Z,101924.75
2022-12-18T12:42:32.983Z,101925.16
2022-12-18T12:45:07.266Z,101928.22
2022-12-18T12:47:40.601Z,101942.09
2022-12-18T12:50:16.946Z,101946.47
2022-12-18T12:52:49.748Z,101947.72
2022-12-18T12:55:22.424Z,101963.91
2022-12-18T12:58:01.975Z,101975.41
2022-12-18T13:00:40.135Z,101989.53
2022-12-18T13:03:16.685Z,101984.25
2022-12-18T13:05:53.445Z,101971.09
2022-12-18T13:08:27.762Z,101975.59
2022-12-18T13:11:15.669Z,101973.97
2022-12-18T13:13:52.930Z,101976.78
2022-12-18T13:16:22.841Z,101988.16
2022-12-18T13:18:52.479Z,101976.72
2022-12-18T13:21:25.886Z,101971.88
2022-12-18T13:23:54.446Z,101988.19
2022-12-18T13:26:35.417Z,101993.88
2022-12-18T13:29:05.260Z,101998.72
2022-12-18T13:32:10.205Z,102005.41
2022-12-18T13:34:38.543Z,102002.41
2022-12-18T13:37:43.794Z,101999.53
2022-12-18T13:40:59.844Z,101997.00
2022-12-18T13:43:41.786Z,101997.47
2022-12-18T13:46:22.479Z,101992.16
2022-12-18T13:48:54.475Z,101990.44
2022-12-18T13:51:23.919Z,101994.59
2022-12-18T13:53:54.217Z,102005.78
2022-12-18T13:56:25.790Z,101996.78
2022-12-18T13:59:25.299Z,102017.13
2022-12-18T14:01:56.814Z,102029.97
2022-12-18T14:04:29.074Z,102036.22
2022-12-18T14:07:05.165Z,102055.41
2022-12-18T14:09:37.294Z,102054.84
2022-12-18T14:12:25.355Z,102047.56
2022-12-18T14:14:55.641Z,102051.94
2022-12-18T14:17:25.314Z,102063.59
2022-12-18T14:19:54.246Z,102066.72
2022-12-18T14:22:30.592Z,102068.91
2022-12-18T14:25:17.641Z,102069.16
2022-12-18T14:27:47.996Z,102066.03
2022-12-18T14:30:37.355Z,102070.56
2022-12-18T14:33:07.326Z,102073.91
2022-12-18T14:35:38.780Z,102077.13
2022-12-18T14:38:22.478Z,102087.09
2022-12-18T14:40:55.162Z,102104.09
2022-12-18T14:43:25.075Z,102105.72
2022-12-18T14:45:54.872Z,102097.16
2022-12-18T14:48:27.346Z,102106.53
2022-12-18T14:51:01.814Z,102100.16
2022-12-18T14:53:36.356Z,102096.69
2022-12-18T14:56:06.916Z,102100.06
2022-12-18T14:58:35.463Z,102110.44
2022-12-18T15:01:05.643Z,102112.16
2022-12-18T15:03:34.028Z,102122.09
2022-12-18T15:06:19.746Z,102121.78
2022-12-18T15:08:48.051Z,102129.84
2022-12-18T15:11:31.164Z,102134.22
2022-12-18T15:14:00.677Z,102128.78
2022-12-18T15:16:30.424Z,102128.31
2022-12-18T15:18:58.641Z,102129.50
2022-12-18T15:21:26.938Z,102126.41
2022-12-18T15:23:55.549Z,102133.75
2022-12-18T15:26:24.679Z,102137.31
2022-12-18T15:28:56.134Z,102142.06
2022-12-18T15:31:30.428Z,102139.84
2022-12-18T15:34:14.917Z,102150.59
2022-12-18T15:36:43.168Z,102160.06
2022-12-18T15:39:14.818Z,102165.41
2022-12-18T15:42:03.221Z,102162.63
2022-12-18T15:44:30.348Z,102160.06
2022-12-18T15:46:58.773Z,102167.91
2022-12-18T15:49:28.539Z,102172.44
2022-12-18T15:52:00.573Z,102175.53
2022-12-18T15:55:01.111Z,102173.94
2022-12-18T15:57:29.250Z,102178.53
2022-12-18T15:59:59.506Z,102189.06
2022-12-18T16:02:29.332Z,102194.03
2022-12-18T16:04:59.820Z,102184.81
2022-12-18T16:07:30.580Z,102186.78
2022-12-18T16:09:59.418Z,102191.72
2022-12-18T16:12:30.621Z,102196.47
2022-12-18T16:14:58.684Z,102201.09
2022-12-18T16:17:27.081Z,102196.38
2022-12-18T16:19:55.256Z,102193.47
2022-12-18T16:22:27.859Z,102200.31
2022-12-18T16:24:57.509Z,102218.69
2022-12-18T16:27:26.681Z,102220.03
2022-12-18T16:29:55.065Z,102218.47
2022-12-18T16:32:24.497Z,102216.63
2022-12-18T16:34:52.813Z,102215.91
2022-12-18T16:37:21.160Z,102217.97
2022-12-18T16:39:50.790Z,102210.97
2022-12-18T16:42:21.250Z,102220.03
2022-12-18T16:44:50.990Z,102210.81
2022-12-18T16:47:19.912Z,102226.44
2022-12-18T16:49:51.935Z,102237.91
2022-12-18T16:52:20.507Z,102226.22
2022-12-18T16:54:48.935Z,102224.53
2022-12-18T16:57:20.446Z,102230.97
2022-12-18T16:59:50.235Z,102227.69
2022-12-18T17:02:23.416Z,102237.63
2022-12-18T17:04:55.327Z,102239.22
2022-12-18T17:07:23.427Z,102250.28
2022-12-18T17:09:51.969Z,102265.28
2022-12-18T17:12:22.144Z,102265.50
2022-12-18T17:14:50.533Z,102254.78
2022-12-18T17:17:21.732Z,102260.63
2022-12-18T17:19:50.398Z,102258.59
2022-12-18T17:22:18.714Z,102257.66
2022-12-18T17:24:48.090Z,102264.66
2022-12-18T17:27:16.580Z,102260.88
2022-12-18T17:29:48.344Z,102260.13
2022-12-18T17:32:17.479Z,102264.78
2022-12-18T17:34:46.128Z,102262.22
2022-12-18T17:37:15.496Z,102254.28
2022-12-18T17:39:43.656Z,102261.88
2022-12-18T17:42:14.794Z,102256.56
2022-12-18T17:44:45.479Z,102266.00
2022-12-18T17:47:13.787Z,102275.22
2022-12-18T17:49:42.165Z,102283.13
2022-12-18T17:52:10.575Z,102280.03
2022-12-18T17:54:41.520Z,102290.41
2022-12-18T17:57:10.347Z,102284.88
2022-12-18T17:59:38.793Z,102281.56
2022-12-18T18:02:08.641Z,102282.22
2022-12-18T18:04:37.067Z,102289.84
2022-12-18T18:07:05.277Z,102286.66
2022-12-18T18:09:33.469Z,102284.41
2022-12-18T18:12:19.084Z,102273.38
2022-12-18T18:14:47.378Z,102266.38
2022-12-18T18:17:17.239Z,102280.69
2022-12-18T18:19:49.454Z,102285.50
2022-12-18T18:22:18.084Z,102277.16
2022-12-18T18:24:47.042Z,102273.31
2022-12-18T18:27:15.369Z,102289.81
2022-12-18T18:29:43.592Z,102298.56
2022-12-18T18:32:11.764Z,102308.81
2022-12-18T18:34:41.464Z,102310.41
2022-12-18T18:37:10.893Z,102303.50
2022-12-18T18:39:39.367Z,102309.19
2022-12-18T18:42:07.650Z,102309.59
2022-12-18T18:44:36.587Z,102317.34
2022-12-18T18:47:06.321Z,102303.91
2022-12-18T18:49:37.945Z,102312.84
2022-12-18T18:52:08.554Z,102315.78
2022-12-18T18:54:36.880Z,102324.28
2022-12-18T18:57:20.930Z,102323.69
2022-12-18T18:59:49.988Z,102339.22
2022-12-18T19:02:19.107Z,102338.00
2022-12-18T19:04:47.481Z,102339.75
2022-12-18T19:07:29.888Z,102342.75
2022-12-18T19:10:04.713Z,102337.97
2022-12-18T19:12:51.974Z,102336.00
2022-12-18T19:15:20.371Z,102337.63
2022-12-18T19:17:48.875Z,102343.97
2022-12-18T19:20:17.616Z,102342.97
2022-12-18T19:22:54.979Z,102342.97
2022-12-18T19:25:28.144Z,102345.00
2022-12-18T19:28:13.216Z,102351.16
2022-12-18T19:30:51.431Z,102339.75
2022-12-18T19:33:42.240Z,102349.50
2022-12-18T19:36:13.674Z,102336.47
2022-12-18T19:38:44.962Z,102335.25
2022-12-18T19:41:14.923Z,102340.13
2022-12-18T19:43:43.573Z,102335.28
2022-12-18T19:46:14.724Z,102324.25
2022-12-18T19:48:44.137Z,102335.47
2022-12-18T19:51:15.442Z,102339.59
2022-12-18T19:53:45.540Z,102344.47
2022-12-18T19:56:15.967Z,102344.03
2022-12-18T19:58:45.244Z,102351.41
2022-12-18T20:01:16.252Z,102345.47
2022-12-18T20:03:46.749Z,102348.75
2022-12-18T20:06:25.057Z,102349.97
2022-12-18T20:09:00.074Z,102348.72
2022-12-18T20:11:29.500Z,102350.41
2022-12-18T20:13:57.777Z,102354.06
2022-12-18T20:16:25.962Z,102355.31
2022-12-18T20:18:55.466Z,102366.94
2022-12-18T20:21:24.273Z,102363.69
2022-12-18T20:23:54.950Z,102368.34
2022-12-18T20:26:23.356Z,102377.31
2022-12-18T20:28:51.731Z,102371.84
2022-12-18T20:31:20.016Z,102377.56
2022-12-18T20:33:49.993Z,102370.00
2022-12-18T20:36:23.600Z,102387.34
2022-12-18T20:38:57.238Z,102380.00
2022-12-18T20:41:38.224Z,102384.91
2022-12-18T20:44:10.941Z,102376.97
2022-12-18T20:46:56.532Z,102392.63
2022-12-18T20:49:26.325Z,102395.91
2022-12-18T20:51:56.551Z,102394.28
2022-12-18T20:54:27.670Z,102395.91
2022-12-18T20:56:56.205Z,102384.50
2022-12-18T20:59:25.743Z,102390.81
2022-12-18T21:01:55.721Z,102390.19
2022-12-18T21:04:24.351Z,102395.72
2022-12-18T21:07:01.898Z,102408.75
2022-12-18T21:09:37.327Z,102409.38
2022-12-18T21:12:25.771Z,102415.72
2022-12-18T21:14:53.906Z,102416.09
2022-12-18T21:17:22.146Z,102421.81
2022-12-18T21:19:50.288Z,102425.47
2022-12-18T21:22:19.229Z,102423.41
2022-12-18T21:24:49.079Z,102423.44
2022-12-18T21:27:17.980Z,102431.59
2022-12-18T21:29:47.247Z,102432.00
2022-12-18T21:32:16.084Z,102438.50
2022-12-18T21:34:48.013Z,102439.31
2022-12-18T21:37:16.827Z,102443.59
2022-12-18T21:39:45.089Z,102443.38
2022-12-18T21:42:31.880Z,102438.72
2022-12-18T21:45:00.271Z,102440.09
2022-12-18T21:47:28.405Z,102431.38
2022-12-18T21:49:56.566Z,102440.75
2022-12-18T21:52:31.582Z,102447.66
2022-12-18T21:55:08.423Z,102448.03
2022-12-18T21:57:40.201Z,102435.22
2022-12-18T22:00:18.480Z,102427.06
2022-12-18T22:02:47.287Z,102438.06
2022-12-18T22:05:15.708Z,102434.38
2022-12-18T22:07:44.363Z,102434.41
2022-12-18T22:10:12.575Z,102431.72
2022-12-18T22:12:44.445Z,102426.03
2022-12-18T22:15:21.343Z,102421.75
2022-12-18T22:17:50.940Z,102440.03
2022-12-18T22:20:20.028Z,102430.13
2022-12-18T22:22:48.576Z,102439.88
2022-12-18T22:25:16.872Z,102437.63
2022-12-18T22:28:07.266Z,102438.63
2022-12-18T22:30:34.491Z,102434.69
2022-12-18T22:33:02.807Z,102442.63
2022-12-18T22:35:30.866Z,102442.41
2022-12-18T22:37:59.779Z,102465.22
2022-12-18T22:40:28.658Z,102453.38
2022-12-18T22:42:58.231Z,102458.25
2022-12-18T22:45:27.317Z,102455.41
2022-12-18T22:47:55.706Z,102463.03
2022-12-18T22:50:23.890Z,102473.00
2022-12-18T22:52:52.090Z,102466.72
2022-12-18T22:55:20.551Z,102473.19
2022-12-18T22:57:49.385Z,102482.78
2022-12-18T23:00:24.641Z,102480.28
2022-12-18T23:02:59.710Z,102481.09
2022-12-18T23:05:30.215Z,102480.50
2022-12-18T23:07:58.663Z,102490.44
2022-12-18T23:10:27.550Z,102497.59
2022-12-18T23:12:56.044Z,102487.38
2022-12-18T23:15:28.040Z,102490.81
2022-12-18T23:17:58.244Z,102484.97
2022-12-18T23:20:27.449Z,102495.13
2022-12-18T23:22:55.742Z,102493.53
2022-12-18T23:25:24.397Z,102494.84
2022-12-18T23:27:52.904Z,102497.72
2022-12-18T23:30:21.210Z,102498.00
2022-12-18T23:32:50.782Z,102503.69
2022-12-18T23:35:19.334Z,102511.84
2022-12-18T23:38:03.946Z,102507.56
2022-12-18T23:40:32.242Z,102502.94
2022-12-18T23:43:00.806Z,102509.25
2022-12-18T23:45:28.980Z,102511.13
2022-12-18T23:47:58.793Z,102506.19
2022-12-18T23:50:28.786Z,102508.88
2022-12-18T23:53:04.922Z,102516.47
2022-12-18T23:55:38.794Z,102508.97
2022-12-18T23:58:07.094Z,102511.47
